createdAt,value
2022-11-10T00:01:31.139Z,161928.19
2022-11-10T00:04:35.294Z,161919.09
2022-11-10T00:07:39.710Z,161905.97
2022-11-10T00:10:59.118Z,161898.13
2022-11-10T00:14:21.572Z,161875.84
2022-11-10T00:17:25.674Z,161865.41
2022-11-10T00:20:30.517Z,161866.69
2022-11-10T00:23:34.994Z,161856.22
2022-11-10T00:26:39.303Z,161844.44
2022-11-10T00:29:43.463Z,161833.97
2022-11-10T00:32:48.452Z,161832.63
2022-11-10T00:35:52.146Z,161831.34
2022-11-10T00:38:56.162Z,161816.91
2022-11-10T00:42:00.499Z,161805.13
2022-11-10T00:45:05.099Z,161795.97
2022-11-10T00:48:09.095Z,161794.69
2022-11-10T00:51:21.508Z,161793.38
2022-11-10T00:54:25.856Z,161797.31
2022-11-10T00:57:29.891Z,161805.13
2022-11-10T01:00:34.288Z,161784.16
2022-11-10T01:03:39.066Z,161775.03
2022-11-10T01:06:43.553Z,161772.41
2022-11-10T01:09:47.760Z,161788.13
2022-11-10T01:12:51.546Z,161765.81
2022-11-10T01:15:55.748Z,161764.56
2022-11-10T01:19:02.044Z,161758.00
2022-11-10T01:22:06.334Z,161743.63
2022-11-10T01:25:10.495Z,161742.31
2022-11-10T01:28:15.135Z,161733.13
2022-11-10T01:31:21.421Z,161726.56
2022-11-10T01:34:25.577Z,161718.75
2022-11-10T01:37:29.533Z,161737.06
2022-11-10T01:40:33.437Z,161734.44
2022-11-10T01:43:37.986Z,161726.56
2022-11-10T01:46:42.157Z,161703.06
2022-11-10T01:49:46.304Z,161724.00
2022-11-10T01:52:53.489Z,161705.66
2022-11-10T01:55:58.941Z,161724.00
2022-11-10T01:59:09.785Z,161691.19
2022-11-10T02:02:22.763Z,161697.78
2022-11-10T02:05:26.939Z,161680.78
2022-11-10T02:08:31.382Z,161683.38
2022-11-10T02:11:37.525Z,161688.66
2022-11-10T02:14:43.009Z,161684.72
2022-11-10T02:17:53.011Z,161682.09
2022-11-10T02:20:57.455Z,161672.91
2022-11-10T02:24:01.513Z,161659.81
2022-11-10T02:27:05.616Z,161655.88
2022-11-10T02:30:10.672Z,161640.19
2022-11-10T02:33:17.769Z,161614.03
2022-11-10T02:36:22.006Z,161608.78
2022-11-10T02:39:26.247Z,161598.31
2022-11-10T02:42:30.429Z,161594.38
2022-11-10T02:45:34.557Z,161583.91
2022-11-10T02:48:38.495Z,161574.81
2022-11-10T02:51:51.840Z,161553.84
2022-11-10T02:54:55.758Z,161551.19
2022-11-10T02:57:59.752Z,161551.19
2022-11-10T03:01:06.086Z,161525.03
2022-11-10T03:04:10.918Z,161527.66
2022-11-10T03:07:21.323Z,161510.63
2022-11-10T03:10:26.779Z,161500.16
2022-11-10T03:13:45.329Z,161477.91
2022-11-10T03:16:55.501Z,161484.44
2022-11-10T03:19:59.570Z,161481.84
2022-11-10T03:23:04.939Z,161475.34
2022-11-10T03:26:11.139Z,161485.75
2022-11-10T03:29:15.434Z,161477.91
2022-11-10T03:32:19.938Z,161474.00
2022-11-10T03:35:24.269Z,161459.56
2022-11-10T03:38:28.469Z,161462.22
2022-11-10T03:41:32.624Z,161442.56
2022-11-10T03:44:36.828Z,161442.56
2022-11-10T03:47:41.228Z,161434.75
2022-11-10T03:50:45.559Z,161424.28
2022-11-10T03:53:50.095Z,161411.19
2022-11-10T03:56:54.815Z,161413.81
2022-11-10T03:59:58.499Z,161408.59
2022-11-10T04:03:02.457Z,161394.19
2022-11-10T04:06:25.509Z,161399.41
2022-11-10T04:09:29.845Z,161385.00
2022-11-10T04:12:52.467Z,161385.00
2022-11-10T04:15:57.017Z,161374.59
2022-11-10T04:19:01.009Z,161374.59
2022-11-10T04:22:05.176Z,161364.06
2022-11-10T04:25:09.573Z,161361.47
2022-11-10T04:28:13.750Z,161357.53
2022-11-10T04:31:25.806Z,161362.78
2022-11-10T04:34:29.699Z,161349.72
2022-11-10T04:37:34.111Z,161348.41
2022-11-10T04:40:37.809Z,161343.13
2022-11-10T04:43:42.727Z,161343.13
2022-11-10T04:46:47.217Z,161349.72
2022-11-10T04:49:51.591Z,161328.78
2022-11-10T04:52:55.676Z,161330.13
2022-11-10T04:56:02.889Z,161323.53
2022-11-10T04:59:07.191Z,161318.25
2022-11-10T05:02:11.277Z,161309.19
2022-11-10T05:05:15.170Z,161311.78
2022-11-10T05:08:19.373Z,161297.34
2022-11-10T05:11:23.893Z,161311.78
2022-11-10T05:14:27.803Z,161317.00
2022-11-10T05:17:32.137Z,161298.66
2022-11-10T05:20:36.380Z,161289.53
2022-11-10T05:23:41.716Z,161271.19
2022-11-10T05:26:45.718Z,161252.88
2022-11-10T05:29:49.977Z,161248.94
2022-11-10T05:32:53.969Z,161237.22
2022-11-10T05:35:57.985Z,161224.13
2022-11-10T05:39:02.003Z,161220.19
2022-11-10T05:42:06.196Z,161218.88
2022-11-10T05:45:10.317Z,161226.75
2022-11-10T05:48:14.821Z,161231.94
2022-11-10T05:51:19.592Z,161225.47
2022-11-10T05:54:23.571Z,161237.22
2022-11-10T05:57:27.600Z,161258.13
2022-11-10T06:00:32.835Z,161277.72
2022-11-10T06:03:36.889Z,161297.34
2022-11-10T06:06:40.945Z,161318.25
2022-11-10T06:09:45.606Z,161330.13
2022-11-10T06:12:49.533Z,161348.41
2022-11-10T06:15:53.629Z,161347.06
2022-11-10T06:18:57.952Z,161357.53
2022-11-10T06:22:07.349Z,161362.78
2022-11-10T06:25:12.010Z,161360.13
2022-11-10T06:28:17.138Z,161356.22
2022-11-10T06:31:21.029Z,161351.00
2022-11-10T06:34:25.297Z,161331.38
2022-11-10T06:37:29.532Z,161323.53
2022-11-10T06:40:34.408Z,161297.34
2022-11-10T06:43:38.453Z,161294.72
2022-11-10T06:46:42.635Z,161290.84
2022-11-10T06:49:46.822Z,161275.13
2022-11-10T06:52:57.864Z,161266.00
2022-11-10T06:56:01.895Z,161258.13
2022-11-10T06:59:07.988Z,161262.06
2022-11-10T07:02:15.687Z,161266.00
2022-11-10T07:05:20.102Z,161262.06
2022-11-10T07:08:24.507Z,161275.13
2022-11-10T07:11:34.763Z,161271.19
2022-11-10T07:14:38.679Z,161313.06
2022-11-10T07:17:42.877Z,161307.84
2022-11-10T07:20:47.241Z,161318.25
2022-11-10T07:23:51.582Z,161315.66
2022-11-10T07:26:59.148Z,161320.91
2022-11-10T07:30:04.906Z,161326.13
2022-11-10T07:33:13.962Z,161358.84
2022-11-10T07:36:17.889Z,161366.72
2022-11-10T07:39:22.042Z,161368.00
2022-11-10T07:42:26.160Z,161387.66
2022-11-10T07:45:32.042Z,161391.59
2022-11-10T07:48:36.207Z,161405.94
2022-11-10T07:51:42.026Z,161426.88
2022-11-10T07:54:46.136Z,161453.06
2022-11-10T07:57:50.260Z,161459.56
2022-11-10T08:00:54.111Z,161463.50
2022-11-10T08:03:58.094Z,161498.84
2022-11-10T08:07:02.618Z,161517.19
2022-11-10T08:10:07.490Z,161538.06
2022-11-10T08:13:13.067Z,161574.81
2022-11-10T08:16:17.086Z,161625.78
2022-11-10T08:19:21.239Z,161663.75
2022-11-10T08:22:25.531Z,161716.09
2022-11-10T08:25:34.917Z,161756.72
2022-11-10T08:28:39.402Z,161778.97
2022-11-10T08:31:43.430Z,161845.72
2022-11-10T08:34:47.478Z,161907.25
2022-11-10T08:37:51.701Z,161960.94
2022-11-10T08:40:57.469Z,162012.03
2022-11-10T08:44:01.770Z,161991.09
2022-11-10T08:47:08.586Z,161958.31
2022-11-10T08:50:12.509Z,161917.78
2022-11-10T08:53:18.552Z,161871.91
2022-11-10T08:56:22.678Z,161836.53
2022-11-10T08:59:27.019Z,161835.25
2022-11-10T09:03:09.927Z,161861.41
2022-11-10T09:06:13.881Z,161933.47
2022-11-10T09:09:17.907Z,161975.34
2022-11-10T09:12:21.809Z,161995.00
2022-11-10T09:15:25.410Z,161963.59
2022-11-10T09:18:30.113Z,161925.59
2022-11-10T09:21:34.550Z,161920.38
2022-11-10T09:24:38.883Z,161947.88
2022-11-10T09:27:42.980Z,161974.06
2022-11-10T09:30:48.995Z,161992.38
2022-11-10T09:33:52.933Z,161998.94
2022-11-10T09:36:56.728Z,162004.19
2022-11-10T09:40:01.611Z,162033.00
2022-11-10T09:43:06.409Z,162046.09
2022-11-10T09:46:18.706Z,162115.50
2022-11-10T09:49:30.803Z,162135.22
2022-11-10T09:52:37.815Z,162220.34
2022-11-10T09:55:56.655Z,162268.78
2022-11-10T09:59:03.561Z,162234.78
2022-11-10T10:02:13.673Z,162238.69
2022-11-10T10:05:33.777Z,162208.53
2022-11-10T10:09:15.548Z,162185.00
2022-11-10T10:12:37.282Z,162171.91
2022-11-10T10:15:59.317Z,162188.94
2022-11-10T10:19:12.716Z,162187.59
2022-11-10T10:22:31.314Z,162195.44
2022-11-10T10:25:39.369Z,162203.31
2022-11-10T10:28:47.361Z,162212.47
2022-11-10T10:31:53.151Z,162213.81
2022-11-10T10:34:57.771Z,162229.53
2022-11-10T10:38:04.419Z,162245.22
2022-11-10T10:41:36.597Z,162245.22
2022-11-10T10:44:40.477Z,162239.97
2022-11-10T10:47:45.664Z,162264.88
2022-11-10T10:50:50.395Z,162281.94
2022-11-10T10:53:54.752Z,162302.84
2022-11-10T10:57:02.895Z,162327.78
2022-11-10T11:00:21.613Z,162326.47
2022-11-10T11:03:30.698Z,162340.91
2022-11-10T11:06:35.856Z,162339.56
2022-11-10T11:09:43.154Z,162348.72
2022-11-10T11:12:47.222Z,162369.72
2022-11-10T11:16:05.350Z,162354.00
2022-11-10T11:19:09.575Z,162348.72
2022-11-10T11:22:35.479Z,162363.16
2022-11-10T11:25:42.456Z,162346.13
2022-11-10T11:29:17.481Z,162355.31
2022-11-10T11:32:41.520Z,162331.69
2022-11-10T11:36:10.812Z,162350.06
2022-11-10T11:39:23.872Z,162388.09
2022-11-10T11:42:46.203Z,162399.88
2022-11-10T11:45:57.001Z,162405.16
2022-11-10T11:49:08.143Z,162388.09
2022-11-10T11:52:38.530Z,162397.22
2022-11-10T11:55:45.426Z,162406.44
2022-11-10T11:59:18.190Z,162389.38
2022-11-10T12:02:52.654Z,162369.72
2022-11-10T12:06:21.728Z,162392.03
2022-11-10T12:09:44.293Z,162392.03
2022-11-10T12:13:07.189Z,162393.25
2022-11-10T12:16:30.284Z,162401.16
2022-11-10T12:19:47.995Z,162395.94
2022-11-10T12:23:26.209Z,162411.66
2022-11-10T12:26:34.593Z,162419.53
2022-11-10T12:29:50.579Z,162411.66
2022-11-10T12:33:05.273Z,162410.31
2022-11-10T12:36:13.413Z,162427.38
2022-11-10T12:39:23.037Z,162430.03
2022-11-10T12:42:29.724Z,162433.97
2022-11-10T12:45:42.793Z,162433.97
2022-11-10T12:48:56.586Z,162433.97
2022-11-10T12:52:18.200Z,162402.47
2022-11-10T12:55:35.986Z,162372.34
2022-11-10T12:58:40.177Z,162371.06
2022-11-10T13:01:46.222Z,162361.84
2022-11-10T13:05:29.098Z,162336.94
2022-11-10T13:08:42.424Z,162378.88
2022-11-10T13:12:05.242Z,162382.81
2022-11-10T13:15:44.749Z,162399.88
2022-11-10T13:18:53.132Z,162423.44
2022-11-10T13:22:00.749Z,162403.81
2022-11-10T13:25:36.308Z,162378.88
2022-11-10T13:28:46.520Z,162363.16
2022-11-10T13:31:53.457Z,162361.84
2022-11-10T13:35:28.610Z,162343.50
2022-11-10T13:38:32.435Z,162339.56
2022-11-10T13:42:05.332Z,162330.41
2022-11-10T13:45:35.329Z,162313.41
2022-11-10T13:49:15.330Z,162310.75
2022-11-10T13:52:45.731Z,162314.69
2022-11-10T13:56:02.241Z,162313.41
2022-11-10T13:59:21.579Z,162322.50
2022-11-10T14:02:38.937Z,162305.53
2022-11-10T14:06:11.227Z,162283.25
2022-11-10T14:09:33.488Z,162281.94
2022-11-10T14:12:45.626Z,162289.75
2022-11-10T14:15:51.851Z,162263.59
2022-11-10T14:19:01.495Z,162255.72
2022-11-10T14:22:22.604Z,162238.69
2022-11-10T14:25:36.092Z,162224.25
2022-11-10T14:28:40.026Z,162202.00
2022-11-10T14:31:44.197Z,162203.31
2022-11-10T14:34:50.743Z,162203.31
2022-11-10T14:38:03.909Z,162196.75
2022-11-10T14:41:16.370Z,162192.81
2022-11-10T14:44:25.037Z,162183.66
2022-11-10T14:47:33.816Z,162181.00
2022-11-10T14:50:37.913Z,162171.91
2022-11-10T14:53:50.631Z,162171.91
2022-11-10T14:56:56.569Z,162154.84
2022-11-10T15:00:00.943Z,162129.94
2022-11-10T15:03:06.652Z,162156.13
2022-11-10T15:06:12.717Z,162146.97
2022-11-10T15:09:23.632Z,162136.50
2022-11-10T15:12:27.792Z,162119.47
2022-11-10T15:15:31.941Z,162112.91
2022-11-10T15:18:36.049Z,162091.94
2022-11-10T15:21:40.241Z,162063.13
2022-11-10T15:24:46.579Z,162043.47
2022-11-10T15:28:01.274Z,162019.91
2022-11-10T15:31:09.759Z,162006.81
2022-11-10T15:34:41.666Z,161988.50
2022-11-10T15:38:02.445Z,161959.66
2022-11-10T15:41:14.147Z,161943.94
2022-11-10T15:44:24.768Z,161932.13
2022-11-10T15:47:28.730Z,161925.59
2022-11-10T15:50:33.050Z,161908.56
2022-11-10T15:53:39.086Z,161903.34
2022-11-10T15:56:43.088Z,161894.19
2022-11-10T15:59:46.960Z,161887.66
2022-11-10T16:02:51.077Z,161869.34
2022-11-10T16:05:55.250Z,161869.34
2022-11-10T16:08:59.344Z,161866.69
2022-11-10T16:12:03.710Z,161860.13
2022-11-10T16:15:18.129Z,161843.13
2022-11-10T16:18:24.683Z,161849.66
2022-11-10T16:21:29.468Z,161836.53
2022-11-10T16:24:33.367Z,161826.09
2022-11-10T16:27:38.793Z,161819.56
2022-11-10T16:30:43.273Z,161811.69
2022-11-10T16:33:47.607Z,161813.00
2022-11-10T16:36:51.736Z,161814.34
2022-11-10T16:39:55.935Z,161797.31
2022-11-10T16:43:00.090Z,161822.16
2022-11-10T16:46:13.176Z,161805.13
2022-11-10T16:49:23.415Z,161798.66
2022-11-10T16:52:27.181Z,161777.69
2022-11-10T16:55:31.762Z,161758.00
2022-11-10T16:58:35.970Z,161730.50
2022-11-10T17:01:42.795Z,161724.00
2022-11-10T17:04:46.652Z,161705.66
2022-11-10T17:07:50.954Z,161691.19
2022-11-10T17:10:56.870Z,161665.09
2022-11-10T17:14:00.741Z,161649.41
2022-11-10T17:17:04.918Z,161632.38
2022-11-10T17:20:17.214Z,161619.25
2022-11-10T17:23:24.510Z,161606.16
2022-11-10T17:26:29.553Z,161600.91
2022-11-10T17:29:33.730Z,161586.56
2022-11-10T17:33:03.745Z,161577.34
2022-11-10T17:36:05.032Z,161560.34
2022-11-10T17:39:14.551Z,161561.66
2022-11-10T17:42:18.750Z,161549.94
2022-11-10T17:45:27.880Z,161539.41
2022-11-10T17:48:31.860Z,161534.19
2022-11-10T17:51:36.510Z,161527.66
2022-11-10T17:54:40.408Z,161519.78
2022-11-10T17:57:44.587Z,161508.03
2022-11-10T18:00:49.074Z,161488.38
2022-11-10T18:03:52.939Z,161479.22
2022-11-10T18:06:56.882Z,161472.69
2022-11-10T18:10:00.884Z,161466.16
2022-11-10T18:13:04.754Z,161457.00
2022-11-10T18:16:11.464Z,161439.94
2022-11-10T18:19:15.734Z,161437.34
2022-11-10T18:22:19.462Z,161428.22
2022-11-10T18:25:23.355Z,161432.13
2022-11-10T18:28:27.339Z,161422.94
2022-11-10T18:31:31.458Z,161407.28
2022-11-10T18:34:35.808Z,161399.41
2022-11-10T18:37:40.119Z,161386.34
2022-11-10T18:40:43.998Z,161373.25
2022-11-10T18:43:48.483Z,161362.78
2022-11-10T18:46:52.897Z,161354.97
2022-11-10T18:49:56.892Z,161351.00
2022-11-10T18:53:02.883Z,161351.00
2022-11-10T18:56:07.017Z,161357.53
2022-11-10T18:59:11.200Z,161362.78
2022-11-10T19:02:15.143Z,161344.47
2022-11-10T19:05:19.266Z,161331.38
2022-11-10T19:08:24.924Z,161328.78
2022-11-10T19:11:28.758Z,161322.19
2022-11-10T19:14:32.812Z,161330.13
2022-11-10T19:17:37.187Z,161331.38
2022-11-10T19:20:42.200Z,161326.13
2022-11-10T19:23:46.282Z,161320.91
2022-11-10T19:26:51.671Z,161318.25
2022-11-10T19:29:55.917Z,161309.19
2022-11-10T19:33:00.111Z,161294.72
2022-11-10T19:36:15.836Z,161271.19
2022-11-10T19:39:19.572Z,161266.00
2022-11-10T19:42:23.682Z,161258.13
2022-11-10T19:45:27.568Z,161256.81
2022-11-10T19:48:32.290Z,161256.81
2022-11-10T19:51:36.275Z,161250.28
2022-11-10T19:54:40.551Z,161245.06
2022-11-10T19:57:44.501Z,161247.66
2022-11-10T20:00:49.130Z,161238.53
2022-11-10T20:03:53.219Z,161237.22
2022-11-10T20:07:15.894Z,161237.22
2022-11-10T20:10:19.906Z,161235.88
2022-11-10T20:13:24.396Z,161231.94
2022-11-10T20:16:28.445Z,161233.28
2022-11-10T20:19:40.907Z,161226.75
2022-11-10T20:22:45.672Z,161221.53
2022-11-10T20:25:50.037Z,161213.66
2022-11-10T20:28:54.107Z,161205.75
2022-11-10T20:31:58.091Z,161203.22
2022-11-10T20:35:02.289Z,161205.75
2022-11-10T20:38:06.511Z,161194.03
2022-11-10T20:41:16.632Z,161194.03
2022-11-10T20:44:20.490Z,161184.88
2022-11-10T20:47:25.896Z,161179.69
2022-11-10T20:50:29.784Z,161182.28
2022-11-10T20:53:33.755Z,161178.34
2022-11-10T20:56:37.942Z,161171.81
2022-11-10T20:59:42.454Z,161167.88
2022-11-10T21:02:46.757Z,161163.97
2022-11-10T21:05:54.589Z,161161.31
2022-11-10T21:08:58.634Z,161149.56
2022-11-10T21:12:21.405Z,161137.84
2022-11-10T21:15:25.563Z,161128.66
2022-11-10T21:18:32.528Z,161135.22
2022-11-10T21:21:36.667Z,161132.56
2022-11-10T21:24:40.955Z,161137.84
2022-11-10T21:27:44.978Z,161124.72
2022-11-10T21:30:48.852Z,161116.88
2022-11-10T21:33:57.533Z,161114.31
2022-11-10T21:37:01.369Z,161111.66
2022-11-10T21:40:06.608Z,161106.41
2022-11-10T21:43:10.783Z,161102.47
2022-11-10T21:46:15.040Z,161099.88
2022-11-10T21:49:18.945Z,161086.81
2022-11-10T21:52:23.301Z,161081.56
2022-11-10T21:55:27.332Z,161094.63
2022-11-10T21:58:33.525Z,161093.34
2022-11-10T22:01:37.497Z,161078.94
2022-11-10T22:04:41.652Z,161078.94
2022-11-10T22:07:45.811Z,161077.63
2022-11-10T22:11:08.461Z,161078.94
2022-11-10T22:14:31.942Z,161065.91
2022-11-10T22:17:54.681Z,161052.78
2022-11-10T22:20:58.931Z,161046.25
2022-11-10T22:24:21.844Z,161034.50
2022-11-10T22:27:25.982Z,161031.88
2022-11-10T22:30:30.709Z,161035.78
2022-11-10T22:33:36.295Z,161026.66
2022-11-10T22:36:40.664Z,161038.44
2022-11-10T22:40:03.577Z,161033.19
2022-11-10T22:43:28.097Z,161024.00
2022-11-10T22:46:37.743Z,161014.94
2022-11-10T22:49:41.576Z,161022.72
2022-11-10T22:52:45.665Z,161017.53
2022-11-10T22:55:50.113Z,161021.47
2022-11-10T22:58:58.585Z,161018.84
2022-11-10T23:02:04.492Z,161026.66
2022-11-10T23:05:08.926Z,161030.59
2022-11-10T23:08:12.916Z,161022.72
2022-11-10T23:11:19.677Z,161020.13
2022-11-10T23:14:23.466Z,161007.00
2022-11-10T23:17:27.800Z,161001.81
2022-11-10T23:20:31.754Z,161004.41
2022-11-10T23:23:37.349Z,161003.09
2022-11-10T23:26:41.140Z,161012.28
2022-11-10T23:29:44.896Z,160999.16
2022-11-10T23:32:48.964Z,160987.44
2022-11-10T23:35:53.065Z,160983.50
2022-11-10T23:38:56.891Z,160975.66
2022-11-10T23:42:00.978Z,160962.59
2022-11-10T23:45:05.416Z,160957.34
2022-11-10T23:48:09.418Z,160954.75
2022-11-10T23:51:14.228Z,160944.34
2022-11-10T23:54:19.568Z,160945.59
2022-11-10T23:57:23.700Z,160944.34
